HYS481 LUKK-LROP
Flight info
| Callsign | HYS481 |
|---|---|
| Flight time | 0h 37m |
| Altitude | 28000 |
| Route | LIPTA3K LIPTA T34 KODRU DCT DENAK DENAK2X |
| Aircraft | A320/M-SDE3FGHIRWY/LB1 |
Departure
| Time | 2026-05-05 14:09 |
|---|---|
| Airport | Chişinău International Airport (LUKK) |
Arrival
| Time | 2026-05-05 14:46 |
|---|---|
| Airport | Bucharest Henri Coandă International Airport (LROP) |
| Time | Latitude | Longitude | Altitude | Speed | Heading |
|---|---|---|---|---|---|
| 2026-05-05 13:42 | 46.93379 | 28.93547 | 406 ft | 0 kts | 5° |
| 2026-05-05 14:03 | 46.93393 | 28.93549 | 408 ft | 3 kts | 5° |
| 2026-05-05 14:04 | 46.93417 | 28.93527 | 408 ft | 5 kts | 300° |
| 2026-05-05 14:04 | 46.93384 | 28.93484 | 408 ft | 9 kts | 189° |
| 2026-05-05 14:04 | 46.93317 | 28.93473 | 408 ft | 11 kts | 186° |
| 2026-05-05 14:04 | 46.93233 | 28.93459 | 409 ft | 13 kts | 186° |
| 2026-05-05 14:05 | 46.93156 | 28.93423 | 411 ft | 11 kts | 237° |
| 2026-05-05 14:05 | 46.93163 | 28.93300 | 410 ft | 15 kts | 276° |
| 2026-05-05 14:05 | 46.93179 | 28.93113 | 410 ft | 20 kts | 277° |
| 2026-05-05 14:05 | 46.93198 | 28.92893 | 405 ft | 24 kts | 277° |
| 2026-05-05 14:06 | 46.93217 | 28.92664 | 407 ft | 23 kts | 277° |
| 2026-05-05 14:06 | 46.93237 | 28.92417 | 406 ft | 26 kts | 277° |
| 2026-05-05 14:06 | 46.93258 | 28.92173 | 407 ft | 17 kts | 277° |
| 2026-05-05 14:06 | 46.93247 | 28.92046 | 404 ft | 12 kts | 224° |
| 2026-05-05 14:07 | 46.93164 | 28.92008 | 408 ft | 13 kts | 194° |
| 2026-05-05 14:07 | 46.93064 | 28.91986 | 408 ft | 16 kts | 177° |
| 2026-05-05 14:07 | 46.92942 | 28.91992 | 406 ft | 19 kts | 178° |
| 2026-05-05 14:07 | 46.92807 | 28.91999 | 409 ft | 14 kts | 178° |
| 2026-05-05 14:08 | 46.92758 | 28.92064 | 409 ft | 11 kts | 90° |
| 2026-05-05 14:08 | 46.92759 | 28.92097 | 409 ft | 0 kts | 86° |
| 2026-05-05 14:08 | 46.92762 | 28.92248 | 408 ft | 47 kts | 88° |
| 2026-05-05 14:08 | 46.92779 | 28.93074 | 409 ft | 112 kts | 88° |
| 2026-05-05 14:09 | 46.92807 | 28.94459 | 460 ft | 154 kts | 88° |
| 2026-05-05 14:09 | 46.92839 | 28.95996 | 1050 ft | 151 kts | 88° |
| 2026-05-05 14:09 | 46.92858 | 28.97019 | 1419 ft | 154 kts | 90° |
| 2026-05-05 14:09 | 46.92899 | 28.99126 | 2204 ft | 157 kts | 89° |
| 2026-05-05 14:10 | 46.92932 | 29.00834 | 2492 ft | 179 kts | 89° |
| 2026-05-05 14:10 | 46.92968 | 29.02775 | 2796 ft | 202 kts | 89° |
| 2026-05-05 14:10 | 46.92974 | 29.04957 | 3130 ft | 227 kts | 98° |
| 2026-05-05 14:10 | 46.92285 | 29.07068 | 3537 ft | 249 kts | 136° |
| 2026-05-05 14:11 | 46.90686 | 29.08213 | 4188 ft | 262 kts | 174° |
| 2026-05-05 14:11 | 46.88900 | 29.07731 | 5036 ft | 269 kts | 209° |
| 2026-05-05 14:11 | 46.87510 | 29.05900 | 5840 ft | 278 kts | 232° |
| 2026-05-05 14:11 | 46.86219 | 29.03730 | 6648 ft | 288 kts | 227° |
| 2026-05-05 14:12 | 46.84791 | 29.01629 | 7435 ft | 295 kts | 225° |
| 2026-05-05 14:12 | 46.83299 | 28.99536 | 8267 ft | 300 kts | 224° |
| 2026-05-05 14:12 | 46.81778 | 28.97412 | 9112 ft | 305 kts | 224° |
| 2026-05-05 14:12 | 46.80241 | 28.95239 | 9929 ft | 311 kts | 225° |
| 2026-05-05 14:13 | 46.78663 | 28.92978 | 10404 ft | 329 kts | 225° |
| 2026-05-05 14:13 | 46.76987 | 28.90547 | 10730 ft | 348 kts | 226° |
| 2026-05-05 14:13 | 46.75255 | 28.88017 | 11339 ft | 356 kts | 226° |
| 2026-05-05 14:13 | 46.73501 | 28.85448 | 12073 ft | 360 kts | 226° |
| 2026-05-05 14:14 | 46.71724 | 28.82846 | 12822 ft | 364 kts | 226° |
| 2026-05-05 14:14 | 46.69931 | 28.80224 | 13564 ft | 368 kts | 226° |
| 2026-05-05 14:14 | 46.68114 | 28.77573 | 14239 ft | 371 kts | 226° |
| 2026-05-05 14:14 | 46.66275 | 28.74895 | 14854 ft | 376 kts | 226° |
| 2026-05-05 14:15 | 46.64872 | 28.72854 | 15327 ft | 379 kts | 225° |
| 2026-05-05 14:15 | 46.63367 | 28.70665 | 15835 ft | 382 kts | 225° |
| 2026-05-05 14:15 | 46.61478 | 28.67920 | 16487 ft | 385 kts | 225° |
| 2026-05-05 14:15 | 46.59572 | 28.65150 | 17130 ft | 389 kts | 225° |
| 2026-05-05 14:16 | 46.57651 | 28.62366 | 17778 ft | 392 kts | 225° |
| 2026-05-05 14:16 | 46.55711 | 28.59560 | 18416 ft | 395 kts | 225° |
| 2026-05-05 14:16 | 46.53756 | 28.56733 | 19021 ft | 397 kts | 225° |
| 2026-05-05 14:16 | 46.51790 | 28.53894 | 19625 ft | 400 kts | 225° |
| 2026-05-05 14:17 | 46.49805 | 28.51031 | 20231 ft | 404 kts | 225° |
| 2026-05-05 14:17 | 46.47804 | 28.48153 | 20818 ft | 407 kts | 225° |
| 2026-05-05 14:17 | 46.45788 | 28.45252 | 21379 ft | 410 kts | 225° |
| 2026-05-05 14:17 | 46.43758 | 28.42324 | 21935 ft | 413 kts | 225° |
| 2026-05-05 14:18 | 46.41740 | 28.39416 | 22481 ft | 416 kts | 225° |
| 2026-05-05 14:18 | 46.39677 | 28.36450 | 23044 ft | 419 kts | 225° |
| 2026-05-05 14:18 | 46.37595 | 28.33459 | 23605 ft | 423 kts | 225° |
| 2026-05-05 14:18 | 46.35503 | 28.30456 | 24071 ft | 426 kts | 225° |
| 2026-05-05 14:19 | 46.34078 | 28.28413 | 24396 ft | 427 kts | 225° |
| 2026-05-05 14:19 | 46.31262 | 28.24387 | 25010 ft | 430 kts | 225° |
| 2026-05-05 14:19 | 46.29823 | 28.22332 | 25317 ft | 432 kts | 225° |
| 2026-05-05 14:19 | 46.26980 | 28.18279 | 25912 ft | 435 kts | 225° |
| 2026-05-05 14:20 | 46.24823 | 28.15201 | 26357 ft | 437 kts | 225° |
| 2026-05-05 14:20 | 46.22653 | 28.12111 | 26776 ft | 439 kts | 225° |
| 2026-05-05 14:20 | 46.20466 | 28.09008 | 27210 ft | 441 kts | 225° |
| 2026-05-05 14:20 | 46.18272 | 28.05899 | 27627 ft | 444 kts | 225° |
| 2026-05-05 14:21 | 46.16066 | 28.02775 | 27930 ft | 446 kts | 225° |
| 2026-05-05 14:21 | 46.13867 | 27.99666 | 28004 ft | 435 kts | 225° |
| 2026-05-05 14:21 | 46.09621 | 27.93668 | 28007 ft | 424 kts | 225° |
| 2026-05-05 14:22 | 46.06129 | 27.88737 | 28006 ft | 422 kts | 225° |
| 2026-05-05 14:22 | 46.01217 | 27.81827 | 28004 ft | 422 kts | 224° |
| 2026-05-05 14:23 | 45.96532 | 27.76716 | 28004 ft | 423 kts | 216° |
| 2026-05-05 14:23 | 45.91732 | 27.71823 | 28008 ft | 423 kts | 216° |
| 2026-05-05 14:24 | 45.86919 | 27.66945 | 28020 ft | 423 kts | 215° |
| 2026-05-05 14:24 | 45.82104 | 27.62076 | 28016 ft | 424 kts | 216° |
| 2026-05-05 14:25 | 45.79710 | 27.59663 | 27784 ft | 417 kts | 215° |
| 2026-05-05 14:25 | 45.77357 | 27.57293 | 27523 ft | 411 kts | 215° |
| 2026-05-05 14:25 | 45.75032 | 27.54952 | 27257 ft | 408 kts | 215° |
| 2026-05-05 14:25 | 45.72720 | 27.52625 | 27011 ft | 404 kts | 215° |
| 2026-05-05 14:26 | 45.70428 | 27.50320 | 26621 ft | 402 kts | 216° |
| 2026-05-05 14:26 | 45.68146 | 27.48028 | 26206 ft | 400 kts | 215° |
| 2026-05-05 14:26 | 45.65870 | 27.45744 | 25779 ft | 399 kts | 216° |
| 2026-05-05 14:26 | 45.63599 | 27.43464 | 25345 ft | 398 kts | 215° |
| 2026-05-05 14:27 | 45.61334 | 27.41193 | 24914 ft | 398 kts | 215° |
| 2026-05-05 14:27 | 45.59097 | 27.38952 | 24458 ft | 398 kts | 215° |
| 2026-05-05 14:27 | 45.56833 | 27.36686 | 24014 ft | 398 kts | 215° |
| 2026-05-05 14:27 | 45.54565 | 27.34422 | 23543 ft | 398 kts | 215° |
| 2026-05-05 14:28 | 45.52293 | 27.32158 | 23026 ft | 397 kts | 215° |
| 2026-05-05 14:28 | 45.50035 | 27.29913 | 22556 ft | 395 kts | 215° |
| 2026-05-05 14:28 | 45.47786 | 27.27677 | 22084 ft | 393 kts | 215° |
| 2026-05-05 14:28 | 45.45553 | 27.25456 | 21610 ft | 391 kts | 215° |
| 2026-05-05 14:29 | 45.43327 | 27.23244 | 21137 ft | 389 kts | 215° |
| 2026-05-05 14:29 | 45.41111 | 27.21046 | 20662 ft | 387 kts | 215° |
| 2026-05-05 14:29 | 45.38908 | 27.18864 | 20192 ft | 385 kts | 215° |
| 2026-05-05 14:29 | 45.36712 | 27.16688 | 19721 ft | 384 kts | 215° |
| 2026-05-05 14:30 | 45.34526 | 27.14524 | 19256 ft | 382 kts | 215° |
| 2026-05-05 14:30 | 45.32345 | 27.12366 | 18775 ft | 381 kts | 215° |
| 2026-05-05 14:30 | 45.30172 | 27.10219 | 18315 ft | 380 kts | 215° |
| 2026-05-05 14:30 | 45.28008 | 27.08085 | 17804 ft | 378 kts | 215° |
| 2026-05-05 14:31 | 45.25853 | 27.05958 | 17326 ft | 375 kts | 215° |
| 2026-05-05 14:31 | 45.23720 | 27.03851 | 16873 ft | 372 kts | 215° |
| 2026-05-05 14:31 | 45.21600 | 27.01760 | 16414 ft | 370 kts | 215° |
| 2026-05-05 14:31 | 45.19490 | 26.99683 | 15956 ft | 368 kts | 215° |
| 2026-05-05 14:32 | 45.17391 | 26.97622 | 15501 ft | 366 kts | 215° |
| 2026-05-05 14:32 | 45.15306 | 26.95577 | 15049 ft | 364 kts | 215° |
| 2026-05-05 14:32 | 45.13227 | 26.93540 | 14601 ft | 362 kts | 215° |
| 2026-05-05 14:32 | 45.11183 | 26.91538 | 14161 ft | 361 kts | 215° |
| 2026-05-05 14:33 | 45.09116 | 26.89520 | 13701 ft | 360 kts | 215° |
| 2026-05-05 14:33 | 45.07055 | 26.87510 | 13231 ft | 358 kts | 215° |
| 2026-05-05 14:33 | 45.05015 | 26.85522 | 12783 ft | 355 kts | 215° |
| 2026-05-05 14:33 | 45.02986 | 26.83541 | 12349 ft | 353 kts | 216° |
| 2026-05-05 14:34 | 45.00982 | 26.81584 | 11906 ft | 345 kts | 216° |
| 2026-05-05 14:34 | 44.99046 | 26.79698 | 11487 ft | 331 kts | 216° |
| 2026-05-05 14:34 | 44.97186 | 26.77888 | 11048 ft | 320 kts | 216° |
| 2026-05-05 14:34 | 44.95379 | 26.76131 | 10654 ft | 309 kts | 216° |
| 2026-05-05 14:35 | 44.93639 | 26.74439 | 10284 ft | 299 kts | 216° |
| 2026-05-05 14:35 | 44.91951 | 26.72798 | 9923 ft | 293 kts | 216° |
| 2026-05-05 14:35 | 44.90267 | 26.71159 | 9519 ft | 295 kts | 216° |
| 2026-05-05 14:35 | 44.88577 | 26.69515 | 9148 ft | 296 kts | 216° |
| 2026-05-05 14:36 | 44.86901 | 26.67888 | 8775 ft | 297 kts | 216° |
| 2026-05-05 14:36 | 44.85176 | 26.66219 | 8397 ft | 298 kts | 216° |
| 2026-05-05 14:36 | 44.83466 | 26.64563 | 8023 ft | 299 kts | 216° |
| 2026-05-05 14:36 | 44.81772 | 26.62922 | 7642 ft | 300 kts | 216° |
| 2026-05-05 14:37 | 44.80051 | 26.61259 | 7262 ft | 301 kts | 216° |
| 2026-05-05 14:37 | 44.78322 | 26.59591 | 6876 ft | 302 kts | 215° |
| 2026-05-05 14:37 | 44.76599 | 26.57932 | 6530 ft | 301 kts | 215° |
| 2026-05-05 14:37 | 44.74879 | 26.56275 | 6219 ft | 298 kts | 215° |
| 2026-05-05 14:38 | 44.73177 | 26.54637 | 5718 ft | 292 kts | 215° |
| 2026-05-05 14:38 | 44.71528 | 26.53051 | 5336 ft | 282 kts | 215° |
| 2026-05-05 14:38 | 44.69937 | 26.51522 | 4979 ft | 273 kts | 216° |
| 2026-05-05 14:38 | 44.68372 | 26.50014 | 4760 ft | 268 kts | 216° |
| 2026-05-05 14:39 | 44.66860 | 26.48561 | 4659 ft | 258 kts | 216° |
| 2026-05-05 14:39 | 44.65409 | 26.47170 | 4564 ft | 248 kts | 216° |
| 2026-05-05 14:39 | 44.64006 | 26.45825 | 4449 ft | 239 kts | 216° |
| 2026-05-05 14:39 | 44.62666 | 26.44540 | 4344 ft | 228 kts | 215° |
| 2026-05-05 14:40 | 44.61385 | 26.43315 | 4248 ft | 218 kts | 215° |
| 2026-05-05 14:40 | 44.60166 | 26.42131 | 4128 ft | 209 kts | 219° |
| 2026-05-05 14:40 | 44.59223 | 26.40609 | 3884 ft | 205 kts | 242° |
| 2026-05-05 14:40 | 44.58773 | 26.38757 | 3624 ft | 199 kts | 263° |
| 2026-05-05 14:41 | 44.58632 | 26.36856 | 3385 ft | 192 kts | 264° |
| 2026-05-05 14:41 | 44.58501 | 26.35051 | 3168 ft | 181 kts | 264° |
| 2026-05-05 14:41 | 44.58377 | 26.33348 | 2958 ft | 171 kts | 263° |
| 2026-05-05 14:41 | 44.58258 | 26.31732 | 2761 ft | 162 kts | 263° |
| 2026-05-05 14:42 | 44.58145 | 26.30185 | 2577 ft | 156 kts | 263° |
| 2026-05-05 14:42 | 44.58036 | 26.28704 | 2398 ft | 150 kts | 263° |
| 2026-05-05 14:42 | 44.57929 | 26.27266 | 2222 ft | 147 kts | 263° |
| 2026-05-05 14:42 | 44.57824 | 26.25838 | 2050 ft | 147 kts | 263° |
| 2026-05-05 14:43 | 44.57719 | 26.24420 | 1886 ft | 146 kts | 263° |
| 2026-05-05 14:43 | 44.57614 | 26.23005 | 1717 ft | 146 kts | 263° |
| 2026-05-05 14:43 | 44.57509 | 26.21593 | 1538 ft | 145 kts | 263° |
| 2026-05-05 14:43 | 44.57440 | 26.20660 | 1424 ft | 145 kts | 263° |
| 2026-05-05 14:44 | 44.57335 | 26.19251 | 1254 ft | 145 kts | 262° |
| 2026-05-05 14:44 | 44.57231 | 26.17854 | 1082 ft | 143 kts | 262° |
| 2026-05-05 14:44 | 44.57128 | 26.16470 | 912 ft | 142 kts | 262° |
| 2026-05-05 14:44 | 44.57028 | 26.15092 | 728 ft | 142 kts | 263° |
| 2026-05-05 14:45 | 44.56922 | 26.13722 | 568 ft | 141 kts | 263° |
| 2026-05-05 14:45 | 44.56817 | 26.12357 | 399 ft | 141 kts | 263° |
| 2026-05-05 14:45 | 44.56719 | 26.11041 | 323 ft | 123 kts | 264° |
| 2026-05-05 14:45 | 44.56644 | 26.10066 | 323 ft | 84 kts | 264° |
| 2026-05-05 14:46 | 44.56586 | 26.09321 | 322 ft | 67 kts | 265° |
| 2026-05-05 14:46 | 44.56553 | 26.08848 | 322 ft | 24 kts | 264° |
| 2026-05-05 14:46 | 44.56604 | 26.08634 | 322 ft | 25 kts | 318° |
| 2026-05-05 14:46 | 44.56722 | 26.08580 | 322 ft | 10 kts | 353° |
| 2026-05-05 14:47 | 44.56762 | 26.08573 | 323 ft | 7 kts | 354° |
| 2026-05-05 14:47 | 44.56768 | 26.08573 | 323 ft | 0 kts | 354° |
| 2026-05-05 14:47 | 44.56773 | 26.08572 | 323 ft | 4 kts | 354° |
| 2026-05-05 14:47 | 44.56849 | 26.08561 | 323 ft | 14 kts | 353° |
| 2026-05-05 14:48 | 44.56919 | 26.08599 | 322 ft | 13 kts | 75° |
| 2026-05-05 14:48 | 44.56928 | 26.08706 | 322 ft | 11 kts | 83° |
| 2026-05-05 14:48 | 44.56937 | 26.08822 | 322 ft | 13 kts | 84° |
| 2026-05-05 14:48 | 44.56943 | 26.08900 | 322 ft | 6 kts | 84° |
| 2026-05-05 14:49 | 44.56912 | 26.08924 | 322 ft | 3 kts | 173° |
| 2026-05-05 14:49 | 44.56895 | 26.08927 | 322 ft | 1 kts | 173° |
| 2026-05-05 14:49 | 44.56892 | 26.08928 | 322 ft | 0 kts | 173° |